Time;durP1;ratioP1;P1;durP2;ratioP2;P2;SDS_P1;SDS_P2;PMS_P1;PMS_P2;Temp;Humidity;BMP_temperature;BMP_pressure;BME280_temperature;BME280_humidity;BME280_pressure;Samples;Min_cycle;Max_cycle;Signal;HPM_P1;HPM_P2
2022/05/26 00:02:19;;;;;;;66.93;33.03;;;11.00;99.90;;;;;;5056020;28;20076;-73
2022/05/26 00:04:45;;;;;;;120.47;43.15;;;10.90;99.90;;;;;;5055917;28;20471;-70
2022/05/26 00:07:10;;;;;;;157.23;36.30;;;10.90;99.90;;;;;;5055823;28;20017;-73
2022/05/26 00:09:36;;;;;;;180.55;39.50;;;10.90;99.90;;;;;;5054649;28;20047;-70
2022/05/26 00:12:02;;;;;;;95.03;36.67;;;10.80;99.90;;;;;;5055770;28;20458;-70
2022/05/26 00:14:27;;;;;;;66.07;31.83;;;10.80;99.90;;;;;;5055963;28;20094;-70
2022/05/26 00:16:53;;;;;;;144.43;34.92;;;10.80;99.90;;;;;;5055772;28;20029;-70
2022/05/26 00:19:19;;;;;;;105.80;32.47;;;10.80;99.90;;;;;;5055613;28;20045;-70
2022/05/26 00:21:49;;;;;;;141.63;35.15;;;10.80;99.90;;;;;;5055701;28;20025;-73
2022/05/26 00:24:16;;;;;;;105.78;29.80;;;10.80;99.90;;;;;;5055446;28;20025;-70
2022/05/26 00:26:41;;;;;;;355.13;46.63;;;10.80;99.90;;;;;;5055352;28;20524;-70
2022/05/26 00:29:07;;;;;;;105.97;28.30;;;10.70;99.90;;;;;;5055667;28;20029;-73
2022/05/26 00:31:32;;;;;;;143.82;31.15;;;10.70;99.90;;;;;;5055536;28;20025;-70
2022/05/26 00:33:58;;;;;;;97.90;29.63;;;10.70;99.90;;;;;;5055663;28;20021;-73
2022/05/26 00:36:39;;;;;;;236.52;38.33;;;10.60;99.90;;;;;;5055309;28;20025;-70
2022/05/26 00:39:24;;;;;;;104.03;33.53;;;10.60;99.90;;;;;;5055640;28;20040;-73
2022/05/26 00:42:01;;;;;;;100.88;28.88;;;10.60;99.90;;;;;;5055367;28;20075;-73
2022/05/26 00:44:27;;;;;;;226.25;40.85;;;10.60;99.90;;;;;;5055185;28;20033;-73
2022/05/26 00:47:14;;;;;;;121.10;30.67;;;10.60;99.90;;;;;;5055159;28;20088;-70
2022/05/26 00:49:51;;;;;;;136.90;29.17;;;10.60;99.90;;;;;;5055308;28;20029;-73
2022/05/26 00:52:35;;;;;;;138.23;30.92;;;10.50;99.90;;;;;;5053110;28;20390;-73
2022/05/26 00:55:06;;;;;;;155.77;36.08;;;10.50;99.90;;;;;;5055250;28;20017;-69
2022/05/26 00:57:37;;;;;;;193.73;36.28;;;10.40;99.90;;;;;;5055072;28;20021;-73
2022/05/26 01:00:13;;;;;;;89.63;27.73;;;10.40;99.90;;;;;;5055094;28;20195;-70
2022/05/26 01:02:44;;;;;;;221.27;43.05;;;10.40;99.90;;;;;;5054966;28;20592;-69
2022/05/26 01:05:17;;;;;;;106.47;29.92;;;10.40;99.90;;;;;;5054770;28;20124;-73
2022/05/26 01:07:42;;;;;;;;;;;10.40;99.90;;;;;;5055182;28;20115;-73
2022/05/26 01:10:11;;;;;;;88.43;26.58;;;10.40;99.90;;;;;;5054934;28;19944;-73
2022/05/26 01:12:36;;;;;;;141.63;30.08;;;10.40;99.90;;;;;;5054778;28;20429;-70
2022/05/26 01:15:12;;;;;;;105.55;30.27;;;10.30;99.90;;;;;;5054731;28;20021;-73
2022/05/26 01:18:01;;;;;;;126.32;30.13;;;10.20;99.90;;;;;;5054735;28;20099;-73
2022/05/26 01:20:45;;;;;;;93.53;29.35;;;10.20;99.90;;;;;;5053525;28;20405;-70
2022/05/26 01:23:24;;;;;;;149.27;32.17;;;10.30;99.90;;;;;;5053805;28;20021;-73
2022/05/26 01:26:01;;;;;;;79.20;28.42;;;10.20;99.90;;;;;;5053086;28;20044;-72
2022/05/26 01:29:08;;;;;;;165.48;36.50;;;10.30;99.90;;;;;;5054366;28;20021;-70
2022/05/26 01:31:45;;;;;;;57.13;27.55;;;10.20;99.90;;;;;;5015646;28;20026;-73
2022/05/26 01:34:16;;;;;;;133.90;35.22;;;10.30;99.90;;;;;;5049940;28;20439;-73
2022/05/26 01:37:01;;;;;;;81.93;32.03;;;10.30;99.90;;;;;;5053022;28;20459;-73
2022/05/26 01:40:01;;;;;;;63.35;28.85;;;10.30;99.90;;;;;;5054404;28;20021;-69
2022/05/26 01:42:48;;;;;;;81.45;31.15;;;10.30;99.90;;;;;;5054245;28;20055;-70
2022/05/26 01:45:32;;;;;;;66.35;31.80;;;10.40;99.90;;;;;;5054031;28;20036;-70
2022/05/26 01:48:19;;;;;;;63.38;32.72;;;10.40;99.90;;;;;;5053987;28;20025;-72
2022/05/26 01:51:13;;;;;;;62.95;31.52;;;10.40;99.90;;;;;;5054106;28;20063;-69
2022/05/26 01:53:47;;;;;;;63.33;31.92;;;10.40;99.90;;;;;;5053887;28;20107;-73
2022/05/26 01:56:27;;;;;;;56.22;31.20;;;10.40;99.90;;;;;;5053809;28;20033;-72
2022/05/26 01:59:05;;;;;;;67.47;35.25;;;10.40;99.90;;;;;;5053918;28;20021;-70
2022/05/26 02:01:36;;;;;;;63.08;33.60;;;10.40;99.90;;;;;;5053750;28;20017;-72
2022/05/26 02:04:08;;;;;;;62.95;35.33;;;10.40;99.90;;;;;;5052251;28;20025;-73
2022/05/26 02:06:40;;;;;;;58.50;32.47;;;10.40;99.90;;;;;;5052550;28;20021;-70
2022/05/26 02:09:22;;;;;;;62.65;35.22;;;10.40;99.90;;;;;;5053739;28;20020;-70
2022/05/26 02:11:59;;;;;;;56.28;33.05;;;10.40;99.90;;;;;;5053805;28;20056;-70
2022/05/26 02:14:36;;;;;;;64.68;35.53;;;10.50;99.90;;;;;;5052452;28;20457;-69
2022/05/26 02:17:09;;;;;;;63.63;37.50;;;10.50;99.90;;;;;;5053685;28;20402;-70
2022/05/26 02:19:41;;;;;;;62.58;35.47;;;10.50;99.90;;;;;;5053476;28;20068;-70
2022/05/26 02:22:31;;;;;;;59.28;31.55;;;10.50;99.90;;;;;;5053593;28;20017;-70
2022/05/26 02:25:06;;;;;;;64.70;33.13;;;10.50;99.90;;;;;;5053307;28;20491;-70
2022/05/26 02:27:33;;;;;;;61.33;35.08;;;10.50;99.90;;;;;;5053427;28;20043;-70
2022/05/26 02:30:01;;;;;;;58.63;34.10;;;10.40;99.90;;;;;;5053441;28;20021;-73
2022/05/26 02:32:37;;;;;;;59.65;33.60;;;10.40;99.90;;;;;;5053383;28;20029;-69
2022/05/26 02:35:09;;;;;;;57.15;31.20;;;10.40;99.90;;;;;;5053495;28;20025;-70
2022/05/26 02:37:37;;;;;;;61.65;35.28;;;10.40;99.90;;;;;;5053373;28;20021;-72
2022/05/26 02:40:04;;;;;;;59.55;32.80;;;10.50;99.90;;;;;;5053224;28;20382;-73
2022/05/26 02:42:30;;;;;;;65.63;32.42;;;10.40;99.90;;;;;;5053258;28;20037;-70
2022/05/26 02:44:56;;;;;;;56.80;30.70;;;10.40;99.90;;;;;;5053072;28;20044;-71
2022/05/26 02:47:42;;;;;;;64.38;32.38;;;10.30;99.90;;;;;;5053133;28;20040;-70
2022/05/26 02:50:25;;;;;;;55.92;30.60;;;10.30;99.90;;;;;;5053095;28;20029;-70
2022/05/26 02:53:18;;;;;;;60.08;30.65;;;10.20;99.90;;;;;;5053168;28;20026;-70
2022/05/26 02:55:48;;;;;;;56.58;27.95;;;10.10;99.90;;;;;;5051906;28;20060;-70
2022/05/26 02:58:48;;;;;;;64.50;32.53;;;10.20;99.90;;;;;;5052912;28;20407;-72
2022/05/26 03:01:22;;;;;;;60.60;31.13;;;10.10;99.90;;;;;;5051854;28;20045;-70
2022/05/26 03:03:52;;;;;;;68.75;30.88;;;10.10;99.90;;;;;;5051777;28;20033;-73
2022/05/26 03:06:24;;;;;;;68.65;33.45;;;10.10;99.90;;;;;;5052917;28;20134;-69
2022/05/26 03:08:53;;;;;;;57.72;30.45;;;10.10;99.90;;;;;;5051684;28;20032;-72
2022/05/26 03:11:23;;;;;;;63.78;31.80;;;10.10;99.90;;;;;;5053021;28;20037;-72
2022/05/26 03:13:50;;;;;;;62.85;33.95;;;10.10;99.90;;;;;;5053402;28;20029;-73
2022/05/26 03:16:16;;;;;;;73.75;34.63;;;10.20;99.90;;;;;;5055771;28;20368;-73
2022/05/26 03:18:42;;;;;;;58.92;31.40;;;10.20;99.90;;;;;;5055446;28;20025;-73
2022/05/26 03:21:09;;;;;;;58.10;30.50;;;10.20;99.90;;;;;;5056925;28;20060;-69
2022/05/26 03:23:36;;;;;;;58.45;29.13;;;10.20;99.90;;;;;;5056736;28;20025;-70
2022/05/26 03:26:02;;;;;;;57.33;30.75;;;10.20;99.90;;;;;;5055614;28;20394;-70
2022/05/26 03:28:30;;;;;;;56.47;28.52;;;10.20;99.90;;;;;;5056748;28;20025;-70
2022/05/26 03:30:56;;;;;;;57.03;31.25;;;10.20;99.90;;;;;;5056675;28;20028;-70
2022/05/26 03:33:22;;;;;;;56.83;30.75;;;10.20;99.90;;;;;;5056756;28;20020;-73
2022/05/26 03:41:21;;;;;;;56.58;28.50;;;10.30;99.90;;;;;;5056134;28;20190;-72
2022/05/26 03:43:55;;;;;;;59.95;31.10;;;10.40;99.90;;;;;;5056330;28;20364;-70
2022/05/26 03:46:21;;;;;;;54.75;28.30;;;10.40;99.90;;;;;;5056559;28;20033;-70
2022/05/26 03:48:46;;;;;;;41.45;26.17;;;10.40;99.90;;;;;;5055007;28;20130;-73
2022/05/26 03:51:12;;;;;;;52.97;29.80;;;10.40;99.90;;;;;;5056394;28;20033;-72
2022/05/26 03:53:38;;;;;;;56.90;30.40;;;10.50;99.90;;;;;;5055169;28;20108;-73
2022/05/26 03:56:04;;;;;;;48.45;27.35;;;10.50;99.90;;;;;;5056000;28;20039;-73
2022/05/26 03:58:31;;;;;;;54.83;30.88;;;10.50;99.90;;;;;;5056281;28;20029;-73
2022/05/26 04:01:04;;;;;;;50.63;28.73;;;10.50;99.90;;;;;;5056024;28;20040;-70
2022/05/26 04:03:30;;;;;;;51.42;30.08;;;10.60;99.90;;;;;;5056133;28;20025;-73
2022/05/26 04:05:55;;;;;;;47.92;27.52;;;10.50;99.90;;;;;;5055670;28;20505;-73
2022/05/26 04:08:22;;;;;;;49.70;27.55;;;10.50;99.90;;;;;;5054904;28;20055;-73
2022/05/26 04:10:47;;;;;;;45.17;26.02;;;10.50;99.90;;;;;;5055832;28;20056;-73
2022/05/26 04:13:13;;;;;;;49.80;26.48;;;10.50;99.90;;;;;;5056070;28;20029;-71
2022/05/26 04:15:38;;;;;;;44.80;25.73;;;10.50;99.90;;;;;;5055767;28;20025;-73
2022/05/26 04:18:04;;;;;;;44.65;27.30;;;10.50;99.90;;;;;;5055953;28;20383;-73
2022/05/26 04:20:30;;;;;;;44.95;26.10;;;10.50;99.90;;;;;;5055688;28;20056;-72
2022/05/26 04:22:55;;;;;;;43.90;26.85;;;10.50;99.90;;;;;;5055703;28;20025;-70
2022/05/26 04:25:22;;;;;;;44.00;25.65;;;10.50;99.90;;;;;;5054192;28;20044;-73
2022/05/26 04:27:48;;;;;;;40.40;24.98;;;10.60;99.90;;;;;;5054464;28;20020;-70
2022/05/26 04:30:14;;;;;;;44.63;24.42;;;10.60;99.90;;;;;;5055661;28;20044;-70
2022/05/26 04:32:41;;;;;;;46.58;27.05;;;10.60;99.90;;;;;;5055615;28;20037;-72
2022/05/26 04:35:09;;;;;;;39.22;24.00;;;10.60;99.90;;;;;;5055400;28;20012;-73
2022/05/26 04:37:35;;;;;;;44.25;25.40;;;10.60;99.90;;;;;;5055594;28;20107;-69
2022/05/26 04:40:00;;;;;;;42.28;24.65;;;10.60;99.90;;;;;;5055691;28;20049;-70
2022/05/26 04:42:28;;;;;;;40.50;24.67;;;10.60;99.90;;;;;;5054283;28;20029;-73
2022/05/26 04:44:53;;;;;;;39.72;23.85;;;10.60;99.90;;;;;;5053969;28;20033;-73
2022/05/26 04:47:20;;;;;;;43.00;26.23;;;10.60;99.90;;;;;;5054063;28;20562;-73
2022/05/26 04:49:45;;;;;;;42.05;25.25;;;10.70;99.90;;;;;;5055322;28;20424;-69
2022/05/26 04:52:18;;;;;;;42.25;25.65;;;10.70;99.90;;;;;;5055269;28;20022;-70
2022/05/26 04:54:44;;;;;;;40.25;25.00;;;10.70;99.90;;;;;;5055103;28;20029;-73
2022/05/26 04:57:11;;;;;;;38.67;25.30;;;10.80;99.90;;;;;;5055139;28;20037;-69
2022/05/26 04:59:37;;;;;;;41.67;25.38;;;10.80;99.90;;;;;;5053700;28;20021;-73
2022/05/26 05:02:04;;;;;;;44.78;24.77;;;10.80;99.90;;;;;;5053835;28;20032;-70
2022/05/26 05:04:30;;;;;;;41.08;25.52;;;10.90;99.90;;;;;;5053694;28;20036;-73
2022/05/26 05:06:56;;;;;;;40.20;25.58;;;10.90;99.90;;;;;;5053448;28;20021;-73
2022/05/26 05:09:22;;;;;;;45.40;24.83;;;11.00;99.90;;;;;;5055129;28;20028;-70
2022/05/26 05:11:48;;;;;;;39.85;22.45;;;11.10;99.90;;;;;;5054607;28;20386;-70
2022/05/26 05:14:14;;;;;;;40.88;25.17;;;11.00;99.90;;;;;;5053300;28;20123;-70
2022/05/26 05:16:44;;;;;;;33.53;21.17;;;11.10;99.90;;;;;;5054571;28;20071;-70
2022/05/26 05:19:11;;;;;;;37.38;22.38;;;11.20;99.90;;;;;;5053267;28;20020;-70
2022/05/26 05:21:46;;;;;;;32.85;20.35;;;11.20;99.90;;;;;;5054534;28;20099;-72
2022/05/26 05:24:20;;;;;;;37.03;23.63;;;11.30;99.90;;;;;;5046580;28;20541;-70
2022/05/26 05:26:52;;;;;;;37.03;22.13;;;11.30;99.90;;;;;;5066012;28;20563;-69
2022/05/26 05:29:20;;;;;;;31.25;20.23;;;11.30;99.90;;;;;;5073424;28;20086;-70
2022/05/26 05:31:52;;;;;;;32.97;20.52;;;11.40;99.90;;;;;;5065788;28;20017;-70
2022/05/26 05:34:24;;;;;;;29.73;18.85;;;11.70;99.90;;;;;;5073402;28;20111;-73
2022/05/26 05:36:50;;;;;;;26.63;17.60;;;11.80;99.90;;;;;;5071782;28;20450;-75
2022/05/26 05:39:16;;;;;;;29.20;18.42;;;12.00;99.90;;;;;;5070282;28;20112;-70
2022/05/26 05:41:42;;;;;;;26.35;19.35;;;12.30;99.90;;;;;;5070874;28;20394;-70
2022/05/26 05:44:07;;;;;;;28.95;18.92;;;12.40;99.90;;;;;;5073922;28;20402;-70
2022/05/26 05:46:53;;;;;;;27.48;17.02;;;12.60;99.90;;;;;;5066553;28;20025;-70
2022/05/26 05:49:23;;;;;;;24.23;17.33;;;12.80;99.90;;;;;;5049997;28;20061;-70
2022/05/26 05:51:49;;;;;;;26.52;17.92;;;12.90;99.90;;;;;;5059231;28;20052;-70
2022/05/26 05:54:15;;;;;;;26.27;17.17;;;12.90;99.90;;;;;;5064017;28;20037;-73
2022/05/26 05:56:41;;;;;;;24.02;16.33;;;12.80;99.90;;;;;;5052509;28;20535;-74
2022/05/26 05:59:06;;;;;;;25.52;17.42;;;12.90;99.90;;;;;;5053072;28;20051;-73
2022/05/26 06:01:32;;;;;;;28.80;18.80;;;13.00;99.90;;;;;;5053127;28;20027;-71
2022/05/26 06:03:57;;;;;;;25.58;16.52;;;13.30;99.90;;;;;;5050329;28;20048;-71
2022/05/26 06:06:23;;;;;;;23.73;15.85;;;13.40;99.90;;;;;;5051713;28;20071;-74
2022/05/26 06:08:49;;;;;;;19.45;15.35;;;13.70;99.90;;;;;;5053699;28;20057;-71
2022/05/26 06:11:14;;;;;;;25.02;17.42;;;13.90;99.90;;;;;;5053412;28;20028;-74
2022/05/26 06:13:41;;;;;;;24.67;16.27;;;14.00;99.90;;;;;;5053603;28;20028;-71
2022/05/26 06:16:07;;;;;;;22.20;15.02;;;14.00;99.90;;;;;;5051994;28;20513;-74
2022/05/26 06:18:32;;;;;;;21.63;15.85;;;14.20;99.90;;;;;;5051417;28;20014;-71
2022/05/26 06:21:03;;;;;;;20.08;16.52;;;14.30;99.90;;;;;;5051053;28;20061;-74
2022/05/26 06:23:28;;;;;;;23.48;15.95;;;14.40;99.90;;;;;;5047584;28;20021;-71
2022/05/26 06:25:54;;;;;;;22.50;15.30;;;14.60;99.90;;;;;;5041068;28;20032;-74
2022/05/26 06:31:03;;;;;;;18.73;15.13;;;14.80;99.90;;;;;;5044697;28;20444;-71
2022/05/26 06:38:58;;;;;;;16.30;13.02;;;15.40;99.90;;;;;;5053570;28;20032;-74
2022/05/26 06:44:09;;;;;;;21.40;13.88;;;15.70;99.90;;;;;;5053651;28;20090;-74
2022/05/26 06:46:34;;;;;;;18.98;13.82;;;15.90;99.90;;;;;;5053318;28;20020;-74
2022/05/26 06:49:00;;;;;;;20.42;13.98;;;16.10;99.90;;;;;;5047558;28;20030;-71
2022/05/26 06:51:29;;;;;;;21.00;12.77;;;16.20;99.90;;;;;;5031421;28;20037;-71
2022/05/26 06:53:55;;;;;;;19.05;12.52;;;16.20;99.90;;;;;;5033416;28;20029;-71
2022/05/26 06:56:20;;;;;;;17.85;11.10;;;16.10;99.90;;;;;;5033184;28;20025;-71
2022/05/26 06:58:46;;;;;;;17.63;12.02;;;16.30;99.90;;;;;;5031993;28;20056;-74
2022/05/26 07:01:14;;;;;;;23.10;12.50;;;16.40;99.90;;;;;;5033195;28;20036;-71
2022/05/26 07:03:41;;;;;;;14.23;11.82;;;16.50;99.90;;;;;;5033284;28;20103;-71
2022/05/26 07:06:16;;;;;;;14.88;10.48;;;16.60;99.90;;;;;;5042721;28;20108;-71
2022/05/26 07:08:44;;;;;;;13.55;11.10;;;16.70;99.90;;;;;;5052843;28;20013;-74
2022/05/26 07:11:10;;;;;;;19.08;10.70;;;16.80;99.90;;;;;;5052983;28;20489;-74
2022/05/26 07:13:35;;;;;;;16.33;10.60;;;16.90;99.90;;;;;;5053081;28;20017;-74
2022/05/26 07:16:01;;;;;;;17.17;10.55;;;17.00;99.90;;;;;;5051876;28;20017;-71
2022/05/26 07:18:27;;;;;;;15.27;10.48;;;17.10;99.90;;;;;;5053113;28;20036;-74
2022/05/26 07:20:52;;;;;;;16.83;10.45;;;17.20;99.90;;;;;;5051740;28;20041;-70
2022/05/26 07:23:18;;;;;;;20.13;11.43;;;17.30;99.90;;;;;;5052502;28;20100;-71
2022/05/26 07:25:44;;;;;;;21.27;10.73;;;17.30;99.90;;;;;;5051397;28;20056;-73
2022/05/26 07:28:13;;;;;;;17.20;11.27;;;17.40;99.90;;;;;;5051345;28;20394;-73
2022/05/26 07:30:40;;;;;;;16.50;11.82;;;17.40;99.90;;;;;;5052193;28;20029;-75
2022/05/26 07:33:06;;;;;;;17.70;11.20;;;17.50;99.90;;;;;;5051021;28;20363;-70
2022/05/26 07:35:31;;;;;;;13.00;10.25;;;17.60;99.90;;;;;;5049677;28;20059;-74
2022/05/26 07:43:27;;;;;;;20.20;11.77;;;17.80;98.10;;;;;;5050827;28;20607;-70
2022/05/26 07:45:52;;;;;;;17.38;9.25;;;17.80;94.10;;;;;;5050611;28;20036;-71
2022/05/26 07:48:18;;;;;;;14.05;9.00;;;17.90;88.70;;;;;;5050741;28;20109;-75
2022/05/26 07:50:43;;;;;;;13.48;9.02;;;18.00;91.10;;;;;;5052405;28;20025;-74
2022/05/26 07:53:09;;;;;;;9.50;7.97;;;18.20;91.80;;;;;;5051504;28;20379;-71
2022/05/26 07:55:35;;;;;;;13.73;8.25;;;18.30;89.80;;;;;;5052730;28;20029;-74
2022/05/26 07:58:00;;;;;;;9.77;7.30;;;18.40;91.20;;;;;;5052644;28;20017;-71
2022/05/26 08:00:26;;;;;;;13.93;7.82;;;18.40;86.30;;;;;;5052792;28;20398;-72
2022/05/26 08:02:52;;;;;;;12.80;7.72;;;18.40;82.00;;;;;;5055977;28;20035;-74
2022/05/26 08:05:18;;;;;;;13.82;8.20;;;18.50;81.20;;;;;;5056056;28;20033;-74
2022/05/26 08:07:44;;;;;;;15.32;7.15;;;18.60;82.30;;;;;;5056016;28;20024;-71
2022/05/26 08:10:10;;;;;;;9.27;6.90;;;18.60;84.00;;;;;;5056259;28;20044;-72
2022/05/26 08:12:37;;;;;;;10.18;7.32;;;18.80;83.60;;;;;;5056003;28;20029;-71
2022/05/26 08:15:04;;;;;;;10.63;5.63;;;18.70;84.50;;;;;;5055058;28;20441;-71
2022/05/26 08:17:29;;;;;;;10.13;5.93;;;18.60;76.10;;;;;;5056108;28;20079;-71
2022/05/26 08:19:56;;;;;;;10.60;5.97;;;18.70;75.80;;;;;;5056060;28;20440;-71
2022/05/26 08:22:21;;;;;;;9.60;5.57;;;18.80;75.30;;;;;;5055848;28;20037;-75
2022/05/26 08:24:55;;;;;;;10.48;6.43;;;18.80;76.80;;;;;;5054288;28;20055;-74
2022/05/26 08:27:20;;;;;;;11.68;5.82;;;18.80;74.70;;;;;;5055710;28;20028;-74
2022/05/26 08:29:46;;;;;;;13.27;5.57;;;19.00;75.00;;;;;;5055608;28;20083;-75
2022/05/26 08:32:13;;;;;;;7.85;5.00;;;19.00;72.20;;;;;;5055706;28;20067;-74
2022/05/26 08:34:39;;;;;;;10.50;5.43;;;19.00;71.00;;;;;;5055715;28;20028;-71
2022/05/26 08:37:05;;;;;;;6.80;4.20;;;19.10;70.00;;;;;;5055699;28;20581;-71
2022/05/26 08:39:31;;;;;;;5.80;4.55;;;19.00;67.40;;;;;;5054337;28;20028;-71
2022/05/26 08:41:57;;;;;;;10.70;4.50;;;19.20;68.60;;;;;;5055478;28;20159;-71
2022/05/26 08:44:34;;;;;;;9.98;4.70;;;19.40;67.70;;;;;;5055342;28;20052;-72
2022/05/26 08:47:14;;;;;;;7.38;3.03;;;19.50;68.70;;;;;;5055516;28;20025;-72
2022/05/26 08:50:07;;;;;;;2.42;2.15;;;19.60;61.70;;;;;;5055421;28;20068;-71
2022/05/26 08:52:33;;;;;;;;;;;19.60;58.00;;;;;;5054534;28;20485;-71
2022/05/26 08:55:04;;;;;;;7.32;3.15;;;19.60;58.10;;;;;;5055379;28;19909;-75
2022/05/26 08:57:41;;;;;;;6.03;3.35;;;19.60;59.90;;;;;;5054181;28;20075;-74
2022/05/26 09:00:13;;;;;;;5.05;2.80;;;19.60;63.70;;;;;;5055341;28;20548;-71
2022/05/26 09:02:40;;;;;;;5.43;3.08;;;19.50;63.00;;;;;;5055086;28;20021;-72
2022/05/26 09:05:13;;;;;;;6.65;2.63;;;19.50;62.80;;;;;;5054863;28;20378;-75
2022/05/26 09:13:14;;;;;;;8.98;3.63;;;19.60;58.80;;;;;;5054496;28;20090;-71
2022/05/26 09:15:40;;;;;;;3.58;3.00;;;19.60;60.00;;;;;;5054788;28;20025;-75
2022/05/26 09:18:17;;;;;;;5.78;3.58;;;19.60;59.40;;;;;;5054976;28;20033;-71
2022/05/26 09:20:45;;;;;;;6.70;3.03;;;19.60;58.80;;;;;;5054495;28;20073;-75
2022/05/26 09:23:23;;;;;;;6.57;3.25;;;19.40;60.40;;;;;;5054682;28;20025;-72
2022/05/26 09:25:50;;;;;;;6.78;3.05;;;19.30;61.70;;;;;;5054422;28;20045;-71
2022/05/26 09:28:30;;;;;;;2.08;1.70;;;19.60;58.80;;;;;;5054607;28;20017;-75
2022/05/26 09:31:21;;;;;;;2.53;1.40;;;19.70;56.00;;;;;;5055051;28;20458;-71
2022/05/26 09:34:14;;;;;;;2.65;1.55;;;19.70;55.70;;;;;;5054604;28;20021;-71
2022/05/26 09:37:04;;;;;;;3.80;1.38;;;19.90;55.10;;;;;;5054501;28;20485;-72
2022/05/26 09:39:39;;;;;;;5.22;1.67;;;19.80;53.20;;;;;;5054558;28;20478;-75
2022/05/26 09:42:05;;;;;;;3.80;2.03;;;19.90;54.80;;;;;;5052873;28;20016;-75
2022/05/26 09:44:57;;;;;;;7.05;3.45;;;19.80;55.40;;;;;;5054387;28;20029;-75
2022/05/26 09:47:41;;;;;;;4.88;1.90;;;19.70;56.00;;;;;;5053147;28;20036;-72
2022/05/26 09:50:10;;;;;;;3.88;1.50;;;19.50;54.20;;;;;;5054301;28;20032;-75
2022/05/26 09:52:42;;;;;;;3.15;2.28;;;19.30;54.30;;;;;;5054300;28;20059;-71
2022/05/26 09:55:14;;;;;;;3.72;1.98;;;19.30;55.20;;;;;;5052801;28;20020;-71
2022/05/26 09:57:40;;;;;;;3.97;1.60;;;19.60;56.70;;;;;;5052913;28;20075;-72
2022/05/26 10:00:31;;;;;;;3.45;1.65;;;19.70;55.80;;;;;;5054017;28;20053;-75
2022/05/26 10:03:00;;;;;;;7.63;1.60;;;19.80;56.70;;;;;;5054151;28;20043;-71
2022/05/26 10:05:49;;;;;;;2.13;1.95;;;20.00;56.80;;;;;;5053887;28;20067;-72
2022/05/26 10:08:38;;;;;;;2.33;1.65;;;20.40;58.10;;;;;;5054140;28;20104;-72
2022/05/26 10:11:40;;;;;;;1.45;1.17;;;20.50;54.80;;;;;;5052707;28;20466;-74
2022/05/26 10:14:26;;;;;;;4.18;1.60;;;20.30;54.60;;;;;;5053881;28;20074;-75
2022/05/26 10:17:02;;;;;;;2.58;1.10;;;20.20;55.10;;;;;;5052588;28;20036;-71
2022/05/26 10:20:03;;;;;;;2.85;1.10;;;20.10;54.10;;;;;;5053419;28;20052;-71
2022/05/26 10:23:07;;;;;;;3.25;1.90;;;20.00;54.20;;;;;;5053605;28;20032;-71
2022/05/26 10:25:57;;;;;;;2.80;1.75;;;19.80;54.50;;;;;;5030645;28;20091;-75
2022/05/26 10:28:32;;;;;;;1.80;1.15;;;19.80;55.80;;;;;;5015095;28;20048;-75
2022/05/26 10:31:03;;;;;;;4.75;1.50;;;19.70;55.70;;;;;;5047014;28;20063;-71
2022/05/26 10:33:49;;;;;;;3.38;2.00;;;19.40;56.00;;;;;;5053650;28;20445;-75
2022/05/26 10:36:39;;;;;;;3.33;1.70;;;19.30;57.20;;;;;;5053510;28;20115;-72
2022/05/26 10:39:14;;;;;;;2.30;2.05;;;19.70;57.60;;;;;;5053396;28;20402;-71
2022/05/26 10:41:56;;;;;;;1.63;1.35;;;19.90;57.70;;;;;;5052077;28;20056;-72
2022/05/26 10:44:28;;;;;;;1.73;1.05;;;20.40;57.90;;;;;;5053404;28;20091;-75
2022/05/26 10:47:08;;;;;;;2.45;1.48;;;20.50;55.20;;;;;;5053195;28;20021;-71
2022/05/26 10:49:42;;;;;;;4.65;1.63;;;20.50;56.70;;;;;;5052120;28;20075;-75
2022/05/26 10:52:35;;;;;;;3.35;1.70;;;20.70;56.80;;;;;;5053231;28;20433;-69
2022/05/26 10:55:11;;;;;;;3.38;2.17;;;20.40;56.30;;;;;;5053334;28;20040;-69
2022/05/26 10:57:48;;;;;;;6.07;2.28;;;20.10;56.70;;;;;;5053202;28;20021;-72
2022/05/26 11:00:19;;;;;;;5.53;2.30;;;19.50;55.00;;;;;;5053206;28;20040;-69
2022/05/26 11:03:09;;;;;;;3.72;2.80;;;19.70;55.30;;;;;;5053292;28;20028;-72
2022/05/26 11:05:50;;;;;;;4.00;2.00;;;19.90;55.30;;;;;;5053104;28;20036;-72
2022/05/26 11:08:34;;;;;;;2.67;1.70;;;19.80;54.60;;;;;;5051885;28;20028;-69
2022/05/26 11:11:06;;;;;;;3.17;2.03;;;19.70;53.80;;;;;;5053111;28;20029;-69
2022/05/26 11:13:37;;;;;;;5.07;1.63;;;19.90;54.30;;;;;;5053273;28;20033;-73
2022/05/26 11:19:44;;;;;;;2.42;1.00;;;20.60;52.60;;;;;;5053096;28;20589;-69
2022/05/26 11:22:12;;;;;;;6.40;1.20;;;20.70;51.60;;;;;;5052988;28;20035;-71
2022/05/26 11:24:39;;;;;;;3.20;1.02;;;20.70;51.40;;;;;;5052906;28;20490;-73
2022/05/26 11:27:07;;;;;;;1.73;1.48;;;20.90;51.50;;;;;;5052846;28;20017;-73
2022/05/26 11:29:44;;;;;;;2.65;1.15;;;20.80;50.60;;;;;;5053105;28;20055;-70
2022/05/26 11:37:52;;;;;;;5.57;1.83;;;20.10;50.90;;;;;;5056526;28;20111;-69
2022/05/26 11:40:33;;;;;;;2.72;1.13;;;20.50;51.20;;;;;;5056716;28;20021;-72
2022/05/26 11:43:00;;;;;;;3.20;1.30;;;20.80;51.70;;;;;;5055309;28;20534;-69
2022/05/26 11:45:29;;;;;;;4.45;2.55;;;21.30;52.10;;;;;;5056274;28;20029;-69
2022/05/26 11:48:00;;;;;;;1.83;1.23;;;21.30;51.00;;;;;;5056618;28;20021;-72
2022/05/26 11:50:54;;;;;;;3.60;2.42;;;21.20;50.90;;;;;;5055137;28;20025;-72
2022/05/26 11:53:42;;;;;;;4.75;2.20;;;20.80;50.60;;;;;;5056605;28;20028;-69
2022/05/26 11:56:26;;;;;;;2.33;1.10;;;20.50;51.00;;;;;;5056353;28;20021;-69
2022/05/26 11:59:20;;;;;;;4.38;1.08;;;20.60;51.60;;;;;;5056334;28;20060;-72
2022/05/26 12:02:24;;;;;;;6.63;1.52;;;20.50;51.10;;;;;;5054647;28;20037;-73
2022/05/26 12:04:50;;;;;;;2.58;1.00;;;20.50;50.50;;;;;;5053546;28;20098;-70
2022/05/26 12:07:17;;;;;;;5.22;1.55;;;20.40;50.90;;;;;;5056166;28;20461;-69
2022/05/26 12:09:48;;;;;;;4.28;1.60;;;20.50;52.80;;;;;;5056248;28;20020;-69
2022/05/26 12:12:16;;;;;;;2.47;1.20;;;20.50;52.00;;;;;;5056153;28;20107;-72
2022/05/26 12:14:50;;;;;;;2.15;0.90;;;20.70;54.40;;;;;;5056016;28;20438;-72
2022/05/26 12:17:32;;;;;;;5.82;2.75;;;20.70;54.40;;;;;;5055933;28;20394;-72
2022/05/26 12:20:03;;;;;;;3.97;1.60;;;20.30;52.90;;;;;;5056033;28;20544;-69
2022/05/26 12:22:33;;;;;;;5.75;2.08;;;20.10;54.20;;;;;;5055814;28;20025;-69
2022/05/26 12:24:58;;;;;;;3.15;2.65;;;20.00;55.10;;;;;;5055846;28;20063;-69
2022/05/26 12:27:51;;;;;;;4.50;2.67;;;19.80;55.40;;;;;;5055627;28;20021;-69
2022/05/26 12:30:34;;;;;;;4.70;2.10;;;19.80;56.40;;;;;;5055785;28;20425;-72
2022/05/26 12:33:10;;;;;;;6.65;2.30;;;19.90;56.80;;;;;;5055419;28;20039;-69
2022/05/26 12:35:47;;;;;;;5.00;2.88;;;19.80;56.00;;;;;;5054223;28;20116;-69
2022/05/26 12:38:40;;;;;;;4.28;2.60;;;19.70;55.60;;;;;;5054338;28;20033;-73
2022/05/26 12:41:20;;;;;;;5.88;2.45;;;19.70;55.70;;;;;;5054258;28;20021;-72
2022/05/26 12:44:23;;;;;;;3.83;2.33;;;19.80;56.40;;;;;;5055394;28;20032;-75
2022/05/26 12:47:10;;;;;;;2.50;1.63;;;19.80;56.60;;;;;;5055422;28;20043;-72
2022/05/26 12:49:56;;;;;;;3.60;1.55;;;20.10;56.80;;;;;;5055000;28;20368;-75
2022/05/26 12:52:38;;;;;;;4.85;1.55;;;20.10;56.00;;;;;;5055138;28;20056;-72
2022/05/26 12:55:22;;;;;;;2.00;1.35;;;20.10;56.60;;;;;;5055427;28;20029;-72
2022/05/26 12:57:54;;;;;;;6.45;1.40;;;20.10;55.50;;;;;;5055187;28;20033;-69
2022/05/26 13:00:36;;;;;;;3.97;1.02;;;20.30;55.60;;;;;;5053897;28;20021;-70
2022/05/26 13:03:27;;;;;;;2.30;1.43;;;20.40;55.70;;;;;;5055022;28;20036;-70
2022/05/26 13:06:00;;;;;;;4.53;1.27;;;20.20;54.90;;;;;;5046860;28;20456;-69
2022/05/26 13:08:39;;;;;;;2.15;1.27;;;20.10;54.70;;;;;;5055112;28;20052;-70
2022/05/26 13:11:04;;;;;;;7.05;1.77;;;20.10;55.60;;;;;;5055006;28;20028;-70
2022/05/26 13:13:40;;;;;;;2.95;1.20;;;20.10;54.70;;;;;;5055008;28;20029;-70
2022/05/26 13:16:38;;;;;;;2.95;1.10;;;19.90;54.20;;;;;;5053748;28;20111;-72
2022/05/26 13:19:13;;;;;;;3.30;1.35;;;19.90;54.40;;;;;;5054698;28;20147;-70
2022/05/26 13:21:41;;;;;;;2.80;1.02;;;19.90;55.10;;;;;;5054928;28;20391;-73
2022/05/26 13:24:16;;;;;;;3.33;1.10;;;20.00;55.20;;;;;;5054789;28;20028;-72
2022/05/26 13:26:43;;;;;;;8.73;1.58;;;19.90;55.40;;;;;;5053271;28;20029;-72
2022/05/26 13:29:09;;;;;;;6.47;1.92;;;19.90;55.70;;;;;;5054077;28;20021;-69
2022/05/26 13:34:28;;;;;;;;;;;19.60;55.90;;;;;;5051179;28;20078;-69
2022/05/26 13:36:53;;;;;;;1.65;1.50;;;19.50;56.40;;;;;;5053836;28;19904;-75
2022/05/26 13:39:23;;;;;;;2.92;1.75;;;19.50;57.20;;;;;;5052618;28;20021;-73
2022/05/26 13:41:51;;;;;;;3.13;1.70;;;19.50;58.60;;;;;;5052842;28;20025;-69
2022/05/26 13:44:30;;;;;;;2.95;1.90;;;19.30;57.40;;;;;;5051630;28;20017;-69